UA4410 / N503GJ 7700 Squawk Report (16th of October, 2020)

Aircraft CRJ7 Reg No. N503GJ Age N/A
Model Regional-Jet Jet engines 2 First flight 11-01
Registered 12-05-20 Rollout 11-01 Delivered 07-12-01
Construction No. 10019 Line No. N/A Series 700
ADSHEX A645B4 Airline name United Express Owner GoJet
Airfield based Chicago O`Hare~IL~N First tracked N/A

Flight history for N503GJ

Route Flight No Date Playback
Detroit Metro Wayne Co (DTW) - Chicago Ohare Intl (ORD) UA4382 2020-10-22 17:47:00
Chicago Ohare Intl (ORD) - Detroit Metro Wayne Co (DTW) UA4434 2020-10-22 15:32:00
Syracuse Hancock Intl (SYR) - Chicago Ohare Intl (ORD) UA4613 2020-10-22 12:30:00
Chicago Ohare Intl (ORD) - Syracuse Hancock Intl (SYR) UA4430 2020-10-22 10:29:00
Harrisburg Intl (MDT) - Chicago Ohare Intl (ORD) UA4527 2020-10-21 21:43:00
Chicago Ohare Intl (ORD) - Harrisburg Intl (MDT) UA4417 2020-10-21 15:47:00
Richmond Intl (RIC) - Chicago Ohare Intl (ORD) UA4471 2020-10-20 20:56:00
Chicago Ohare Intl (ORD) - Richmond Intl (RIC) UA4500 2020-10-20 19:17:00
Lambert St Louis Intl (STL) - Chicago Ohare Intl (ORD) G74587 2020-10-20 12:41:00
Chicago Ohare Intl (ORD) - Dane Co Rgnl Truax Fld (MSN) G74501 2020-10-19 23:37:00
Mbs Intl (MBS) - Chicago Ohare Intl (ORD) UA4441 2020-10-19 00:26:00
Chicago Ohare Intl (ORD) - Mbs Intl (MBS) UA4410 2020-10-18 23:30:00
Cincinnati Northern Kentucky Intl (CVG) - Chicago Ohare Intl (ORD) UA4393 2020-10-18 19:44:00
Chicago Ohare Intl (ORD) - Cincinnati Northern Kentucky Intl (CVG) UA4396 2020-10-18 15:24:00
Blue Grass (LEX) - Chicago Ohare Intl (ORD) UA4492 2020-10-18 12:36:00
Chicago Ohare Intl (ORD) - Blue Grass (LEX) UA4416 2020-10-17 20:32:00
Detroit Metro Wayne Co (DTW) - Chicago Ohare Intl (ORD) UA4382 2020-10-17 17:31:00
Chicago Ohare Intl (ORD) - Detroit Metro Wayne Co (DTW) UA4486 2020-10-17 01:44:00
Mbs Intl (MBS) - Chicago Ohare Intl (ORD) UA4441 2020-10-17 00:37:00
Chicago Ohare Intl (ORD) - Mbs Intl (MBS) UA4410 2020-10-16 22:20:00
Time Lat Lon Altitude Heading Speed Vertical Rate
2020-10-16 20:37:34 GMT 43.634998 -83.936943 3,000 214 149
2020-10-16 20:36:52 GMT 43.658333 -83.914719 3,000 245 146
2020-10-16 20:36:33 GMT 43.665558 -83.893059 3,000 218 147
2020-10-16 20:35:51 GMT 43.684444 -83.871941 3,000 268 146
2020-10-16 20:32:23 GMT 43.591702 -83.798218 2,850 46 220 128
2020-10-16 20:32:13 GMT 43.584301 -83.808746 2,825 44 224 -64
2020-10-16 20:31:17 GMT 43.542847 -83.863754 3,225 44 224 -960
2020-10-16 20:31:11 GMT 43.537491 -83.870903 3,325 45 221 -576
2020-10-16 20:30:49 GMT 43.522480 -83.892517 3,350 47 227 0
2020-10-16 20:30:39 GMT 43.514648 -83.904121 3,350 47 229 -64
2020-10-16 20:30:28 GMT 43.507416 -83.914848 3,350 46 229 64
2020-10-16 20:30:19 GMT 43.500046 -83.925835 3,350 48 231 64
2020-10-16 20:30:04 GMT 43.490479 -83.942001 3,375 56 240 -192
2020-10-16 20:29:57 GMT 43.486404 -83.951195 3,400 61 244 -512
2020-10-16 20:29:48 GMT 43.481373 -83.966087 3,575 67 246 -896
2020-10-16 20:29:37 GMT 43.477570 -83.980324 3,750 71 247 -768
2020-10-16 20:29:25 GMT 43.473770 -83.998466 3,875 77 246 -192
2020-10-16 20:29:17 GMT 43.473221 -84.012390 3,925 99 242 -704
2020-10-16 20:29:05 GMT 43.476719 -84.027168 4,000 124 231 -512
2020-10-16 20:28:54 GMT 43.484665 -84.039467 4,125 138 226 -448
2020-10-16 20:28:45 GMT 43.491989 -84.048096 4,175 140 226 -704
2020-10-16 20:28:34 GMT 43.500690 -84.057968 4,150 141 231 -192
2020-10-16 20:28:20 GMT 43.513680 -84.072090 4,225 141 240 -704
2020-10-16 20:28:13 GMT 43.518707 -84.078171 4,275 131 244 -256
2020-10-16 20:28:02 GMT 43.525223 -84.093315 4,425 98 244 -1984
2020-10-16 20:27:54 GMT 43.525543 -84.107430 4,625 75 240 -704
2020-10-16 20:27:43 GMT 43.522110 -84.122185 4,750 71 248 -896
2020-10-16 20:27:32 GMT 43.518173 -84.138474 4,925 70 253 -576
2020-10-16 20:27:22 GMT 43.514191 -84.153931 4,975 70 266 -320
2020-10-16 20:27:09 GMT 43.508930 -84.174500 5,025 70 277 -448
2020-10-16 20:27:06 GMT 43.507114 -84.181496 5,075 70 282 -512
2020-10-16 20:27:01 GMT 43.504898 -84.190147 5,125 70 285 -960
2020-10-16 20:26:51 GMT 43.500961 -84.205734 5,400 70 289 -1920
2020-10-16 20:26:45 GMT 43.498215 -84.216469 5,575 70 290 -1600
2020-10-16 20:26:40 GMT 43.496017 -84.225212 5,725 70 291 -1472
2020-10-16 20:26:31 GMT 43.491623 -84.242401 6,000 70 295 -1920
2020-10-16 20:26:19 GMT 43.486725 -84.261734 6,375 70 295 -1920
2020-10-16 20:26:10 GMT 43.482445 -84.278481 6,650 70 296 -1792
2020-10-16 20:26:03 GMT 43.478897 -84.292221 6,900 70 298 -1792
2020-10-16 20:25:59 GMT 43.477524 -84.297585 7,000 70 298 -1792
2020-10-16 20:25:48 GMT 43.472435 -84.317520 7,325 70 300 -1728
2020-10-16 20:25:39 GMT 43.467731 -84.335831 7,625 70 300 -1728
2020-10-16 20:25:36 GMT 43.466801 -84.339424 7,700 70 299 -1600
2020-10-16 20:25:32 GMT 43.465027 -84.346451 7,800 70 300 -1472
2020-10-16 20:25:28 GMT 43.463219 -84.353485 7,900 70 301 -1600
2020-10-16 20:25:21 GMT 43.460052 -84.365776 8,075 70 302 -1920
2020-10-16 20:25:17 GMT 43.458252 -84.372826 8,225 70 301 -1920
2020-10-16 20:25:12 GMT 43.455349 -84.384224 8,400 70 301 -1408
2020-10-16 20:25:06 GMT 43.452850 -84.393776 8,500 70 302 -1216
2020-10-16 20:25:01 GMT 43.450607 -84.402596 8,600 70 306 -1088
2020-10-16 20:24:57 GMT 43.448879 -84.409332 8,675 70 308 -1152
2020-10-16 20:24:51 GMT 43.445435 -84.422905 8,850 70 309 -1792
2020-10-16 20:24:46 GMT 43.443947 -84.428627 8,975 70 309 -2112
2020-10-16 20:24:36 GMT 43.438843 -84.448647 9,325 70 309 -1536
2020-10-16 20:24:28 GMT 43.435146 -84.463089 9,525 70 310 -1664
2020-10-16 20:24:25 GMT 43.433762 -84.468445 9,600 70 310 -2048
2020-10-16 20:24:16 GMT 43.429001 -84.486824 9,950 70 310 -1792
2020-10-16 20:24:08 GMT 43.425613 -84.500069 10,150 70 311 -1280
2020-10-16 20:24:04 GMT 43.423603 -84.507751 10,225 70 313 -1152
2020-10-16 20:23:58 GMT 43.420670 -84.519226 10,350 70 317 -1152
2020-10-16 20:23:54 GMT 43.418854 -84.526260 13,025 70 379 -2240
2020-10-16 20:23:45 GMT 43.413639 -84.546532 10,750 70 318 -1984
2020-10-16 20:23:37 GMT 43.410553 -84.558571 10,975 70 319 -1664
2020-10-16 20:23:32 GMT 43.408054 -84.568375 11,100 70 321 -1280
2020-10-16 20:23:28 GMT 43.405540 -84.577988 11,200 70 323 -1216
2020-10-16 20:23:23 GMT 43.403584 -84.585701 13,025 70 379 -2240
2020-10-16 20:23:17 GMT 43.400093 -84.599373 11,500 70 326 -1600
2020-10-16 20:23:06 GMT 43.394440 -84.621040 11,800 70 328 -1728
2020-10-16 20:23:02 GMT 43.392975 -84.626534 11,900 70 327 -1920
2020-10-16 20:22:57 GMT 43.389896 -84.638474 12,100 70 327 -1856
2020-10-16 20:22:53 GMT 43.387802 -84.646530 12,225 70 327 -1728
2020-10-16 20:22:44 GMT 43.383057 -84.664764 12,525 70 327 -2240
2020-10-16 20:22:41 GMT 43.382355 -84.667511 12,575 70 327 -2240
2020-10-16 20:22:33 GMT 43.377468 -84.686409 12,875 70 333 -832
2020-10-16 20:22:25 GMT 43.373978 -84.699883 12,950 70 334 -768
2020-10-16 20:22:19 GMT 43.370132 -84.714554 13,025 70 379 -2240
2020-10-16 20:22:14 GMT 43.368156 -84.722115 13,025 70 343 -192
2020-10-16 20:22:07 GMT 43.363827 -84.738663 13,075 70 348 -320
2020-10-16 20:22:00 GMT 43.359871 -84.753899 13,175 70 359 -1088
2020-10-16 20:21:49 GMT 43.353836 -84.776962 13,475 70 364 -2880
2020-10-16 20:21:39 GMT 43.348560 -84.797256 14,575 70 379 -2240
2020-10-16 20:21:35 GMT 43.345951 -84.807259 14,150 70 364 -2752
2020-10-16 20:21:31 GMT 43.343307 -84.817581 14,350 70 367 -2048
2020-10-16 20:21:28 GMT 43.342163 -84.821922 14,425 70 368 -1920
2020-10-16 20:21:20 GMT 43.337944 -84.838058 14,725 70 373 -1472
2020-10-16 20:21:14 GMT 43.334518 -84.851242 14,725 70 373 -1472
2020-10-16 20:21:07 GMT 43.329758 -84.869255 15,050 70 379 -2240
2020-10-16 20:20:57 GMT 43.324081 -84.890976 15,475 70 379 -2496
2020-10-16 20:20:52 GMT 43.321049 -84.902542 15,675 70 379 -2496
2020-10-16 20:20:47 GMT 43.318535 -84.912025 15,875 70 380 -2432
2020-10-16 20:20:40 GMT 43.313736 -84.930382 16,200 70 381 -2112
2020-10-16 20:20:37 GMT 43.311951 -84.937218 16,300 70 383 -1856
2020-10-16 20:20:31 GMT 43.305359 -84.962448 16,825 70 385 -2048
2020-10-16 20:20:25 GMT 43.305359 -84.962448 16,800 70 391 -2048
2020-10-16 20:20:20 GMT 43.302338 -84.973946 16,850 70 386 -2240
2020-10-16 20:20:16 GMT 43.299911 -84.983147 17,025 70 387 -2240
2020-10-16 20:20:05 GMT 43.293163 -85.008934 17,425 70 391 -2048
2020-10-16 20:19:55 GMT 43.287018 -85.032349 17,825 70 393 -2624
2020-10-16 20:19:45 GMT 43.280968 -85.055305 18,425 70 392 -3072
2020-10-16 20:19:33 GMT 43.273609 -85.083229 18,950 70 388 -3264
2020-10-16 20:19:27 GMT 43.268768 -85.101669 19,475 70 384 -3328
2020-10-16 20:19:15 GMT 43.262009 -85.127243 20,100 70 377 -2688
2020-10-16 20:19:06 GMT 43.256653 -85.147491 20,425 70 379 -1280
2020-10-16 20:19:03 GMT 43.251160 -85.168381 20,500 69 400 -1088
2020-10-16 20:18:57 GMT 43.249405 -85.175041 20,650 70 387 -1280
2020-10-16 20:18:53 GMT 43.243561 -85.197060 21,500 69 400 -1088
2020-10-16 20:18:44 GMT 43.243561 -85.197060 20,975 70 394 -1344
2020-10-16 20:18:33 GMT 43.236969 -85.221970 21,125 70 400 -1280
2020-10-16 20:18:28 GMT 43.234135 -85.232719 21,275 70 402 -1344
2020-10-16 20:18:23 GMT 43.230286 -85.247330 21,400 70 402 -1152
2020-10-16 20:18:16 GMT 43.226269 -85.262405 21,525 70 402 -1152
2020-10-16 20:18:12 GMT 43.223755 -85.271957 21,600 70 402 -1152
2020-10-16 20:18:05 GMT 43.219391 -85.288460 21,850 69 400 -1216
2020-10-16 20:18:00 GMT 43.216187 -85.300346 21,900 69 399 -1152
2020-10-16 20:17:54 GMT 43.211792 -85.316948 21,975 69 396 -1088
2020-10-16 20:17:49 GMT 43.209366 -85.325890 22,075 69 397 -1152
2020-10-16 20:17:43 GMT 43.205177 -85.341728 22,175 69 397 -1152
2020-10-16 20:17:39 GMT 43.202293 -85.352524 22,225 69 397 -1216
2020-10-16 20:17:33 GMT 43.198196 -85.367920 22,425 69 399 -1216
2020-10-16 20:17:30 GMT 43.197498 -85.370506 22,450 69 399 -1216
2020-10-16 20:17:25 GMT 43.194260 -85.382614 22,975 69 408 64
2020-10-16 20:17:21 GMT 43.190796 -85.395683 22,650 69 400 -1024
2020-10-16 20:17:18 GMT 43.188309 -85.404968 22,725 69 401 -1024
2020-10-16 20:17:10 GMT 43.184418 -85.419548 22,825 69 403 -960
2020-10-16 20:17:07 GMT 43.181900 -85.428856 22,950 69 405 -768
2020-10-16 20:17:02 GMT 43.178833 -85.440414 22,975 70 406 -704
2020-10-16 20:16:59 GMT 43.177620 -85.444992 22,975 70 406 -576
2020-10-16 20:16:55 GMT 43.174919 -85.455124 23,000 69 407 128
2020-10-16 20:16:48 GMT 43.170593 -85.471336 23,000 69 407 64
2020-10-16 20:16:41 GMT 43.165329 -85.491028 22,975 69 410 64
2020-10-16 20:16:38 GMT 43.163818 -85.496628 22,975 69 410 64
2020-10-16 20:16:30 GMT 43.158554 -85.516174 22,975 69 413 64
2020-10-16 20:16:27 GMT 43.156082 -85.525436 22,975 69 413 0
2020-10-16 20:16:23 GMT 43.154068 -85.532845 22,975 69 414 -64
2020-10-16 20:16:20 GMT 43.151688 -85.541656 22,975 69 415 0
2020-10-16 20:16:17 GMT 43.149502 -85.549820 22,975 69 416 0
2020-10-16 20:16:07 GMT 43.139912 -85.585526 23,000 69 419 128
2020-10-16 20:15:58 GMT 43.136559 -85.597946 23,000 69 420 128
2020-10-16 20:15:51 GMT 43.132187 -85.614220 22,975 69 422 64
2020-10-16 20:15:47 GMT 43.124828 -85.641563 23,000 69 426 0
2020-10-16 20:15:40 GMT 43.124828 -85.641563 22,975 69 425 0
2020-10-16 20:15:36 GMT 43.122780 -85.649155 22,975 69 426 0
2020-10-16 20:15:29 GMT 43.117126 -85.670113 23,000 69 428 -64
2020-10-16 20:15:26 GMT 43.114792 -85.678734 22,975 69 428 -64
2020-10-16 20:15:18 GMT 43.109512 -85.698395 23,025 69 431 -128
2020-10-16 20:15:14 GMT 43.107697 -85.705063 23,025 69 432 -64
2020-10-16 20:15:11 GMT 43.105602 -85.712715 22,975 69 433 128
2020-10-16 20:15:05 GMT 43.101318 -85.728676 22,975 69 435 64
2020-10-16 20:15:02 GMT 43.098526 -85.739006 22,975 69 435 64
2020-10-16 20:14:57 GMT 43.095062 -85.751678 22,975 69 436 -64
2020-10-16 20:14:54 GMT 43.093689 -85.756851 23,000 69 435 -128
2020-10-16 20:14:51 GMT 43.091446 -85.765091 23,000 69 436 0
2020-10-16 20:14:48 GMT 43.089264 -85.773079 23,000 69 435 -64
2020-10-16 20:14:45 GMT 43.086330 -85.783928 23,000 69 435 -192
2020-10-16 20:14:33 GMT 43.078602 -85.812378 23,000 69 436 64
2020-10-16 20:14:29 GMT 43.075745 -85.822899 23,000 69 435 128
2020-10-16 20:14:23 GMT 43.071396 -85.838928 23,000 69 435 0
2020-10-16 20:14:19 GMT 43.068546 -85.849457 23,000 69 435 -64
2020-10-16 20:14:12 GMT 43.063431 -85.868248 23,000 69 435 -128
2020-10-16 20:14:04 GMT 43.055653 -85.896805 23,000 69 435 0
2020-10-16 20:13:57 GMT 43.051464 -85.912239 23,000 69 434 0
2020-10-16 20:13:54 GMT 43.051464 -85.912239 23,000 69 434 64
2020-10-16 20:13:51 GMT 43.048904 -85.921455 23,000 69 434 64
2020-10-16 20:13:48 GMT 43.046768 -85.929436 23,000 69 434 0
2020-10-16 20:13:42 GMT 43.043316 -85.942055 23,000 69 434 0
2020-10-16 20:13:39 GMT 43.040176 -85.953583 23,000 69 434 64
2020-10-16 20:13:36 GMT 43.038521 -85.959518 23,000 69 434 0
2020-10-16 20:13:31 GMT 43.034752 -85.973381 23,000 69 434 0
2020-10-16 20:13:28 GMT 43.032658 -85.981033 23,000 69 434 0
2020-10-16 20:13:20 GMT 43.027679 -85.999252 23,000 69 433 -64
2020-10-16 20:13:17 GMT 43.024788 -86.009743 23,000 69 433 0
2020-10-16 20:13:12 GMT 43.022137 -86.019485 23,000 69 433 0
2020-10-16 20:13:09 GMT 43.018982 -86.030998 23,000 69 433 0
2020-10-16 20:13:06 GMT 43.016739 -86.039169 23,000 69 433 0
2020-10-16 20:13:01 GMT 43.014496 -86.047348 23,000 69 432 0
2020-10-16 20:12:58 GMT 43.012390 -86.055077 23,000 69 433 0
2020-10-16 20:12:55 GMT 43.009140 -86.066833 23,000 69 433 0
2020-10-16 20:12:49 GMT 43.005142 -86.081413 23,000 69 433 0
2020-10-16 20:12:44 GMT 43.001587 -86.094421 23,000 69 433 0
2020-10-16 20:12:41 GMT 42.999298 -86.102600 23,000 69 433 0
2020-10-16 20:12:37 GMT 42.997055 -86.110779 23,000 69 432 0
2020-10-16 20:12:34 GMT 42.995682 -86.115883 23,000 69 432 0
2020-10-16 20:12:31 GMT 42.992947 -86.125877 23,000 69 432 0
2020-10-16 20:12:27 GMT 42.989826 -86.137131 23,000 69 432 0
2020-10-16 20:12:24 GMT 42.987732 -86.144783 23,000 69 432 0
2020-10-16 20:12:21 GMT 42.985359 -86.153481 23,000 69 432 0
2020-10-16 20:12:18 GMT 42.983963 -86.158577 23,000 69 432 0
2020-10-16 20:12:14 GMT 42.981216 -86.168518 23,000 69 432 0
2020-10-16 20:12:10 GMT 42.977772 -86.181007 23,000 69 432 0
2020-10-16 20:12:07 GMT 42.975998 -86.187424 23,000 69 432 0
2020-10-16 20:12:03 GMT 42.972836 -86.198860 23,000 69 432 0
2020-10-16 20:11:59 GMT 42.967903 -86.216713 23,000 69 432 0
2020-10-16 20:11:56 GMT 42.967903 -86.216713 23,000 69 432 0
2020-10-16 20:11:50 GMT 42.963593 -86.232330 23,000 69 432 0
2020-10-16 20:11:46 GMT 42.961430 -86.240189 23,000 69 432 0
2020-10-16 20:11:42 GMT 42.958649 -86.250153 23,000 69 432 0
2020-10-16 20:11:39 GMT 42.956497 -86.258041 23,000 69 432 0
2020-10-16 20:11:36 GMT 42.951981 -86.274391 23,000 69 432 64
2020-10-16 20:11:33 GMT 42.951981 -86.274391 23,000 69 432 0
2020-10-16 20:11:26 GMT 42.947662 -86.289879 23,000 69 432 0
2020-10-16 20:11:22 GMT 42.944138 -86.302650 23,000 69 431 0
2020-10-16 20:11:18 GMT 42.938370 -86.323479 23,000 69 431 0
2020-10-16 20:11:14 GMT 42.938370 -86.323479 23,000 69 431 0
2020-10-16 20:11:11 GMT 42.936264 -86.331139 23,000 69 431 0
2020-10-16 20:11:05 GMT 42.932053 -86.346405 23,000 69 432 0
2020-10-16 20:11:02 GMT 42.929871 -86.354301 23,000 69 432 0
2020-10-16 20:10:57 GMT 42.926888 -86.364967 23,000 69 431 0
2020-10-16 20:10:53 GMT 42.923264 -86.377899 23,000 69 431 0
2020-10-16 20:10:47 GMT 42.919464 -86.391632 23,000 69 430 0
2020-10-16 20:10:43 GMT 42.917439 -86.398972 23,000 69 431 0
2020-10-16 20:10:38 GMT 42.913761 -86.412178 23,000 69 430 0
2020-10-16 20:10:34 GMT 42.908020 -86.432640 23,000 69 428 0
2020-10-16 20:10:28 GMT 42.906693 -86.437431 23,000 69 427 0
2020-10-16 20:10:25 GMT 42.904312 -86.445992 23,000 69 427 0
2020-10-16 20:10:21 GMT 42.901379 -86.456520 23,000 69 426 0
2020-10-16 20:10:17 GMT 42.897812 -86.469368 23,000 69 426 0
2020-10-16 20:10:13 GMT 42.895706 -86.476898 23,000 69 426 0
2020-10-16 20:10:10 GMT 42.890717 -86.494774 23,000 69 426 0
2020-10-16 20:10:06 GMT 42.890717 -86.494774 23,000 69 426 0
2020-10-16 20:10:03 GMT 42.887970 -86.504562 23,000 69 426 0
2020-10-16 20:09:59 GMT 42.886414 -86.510056 23,000 69 426 0
2020-10-16 20:09:56 GMT 42.883484 -86.520653 23,000 69 427 0
2020-10-16 20:09:52 GMT 42.881241 -86.528641 23,000 69 426 0
2020-10-16 20:09:48 GMT 42.878384 -86.538979 23,000 69 426 0
2020-10-16 20:09:44 GMT 42.874985 -86.551010 23,000 69 427 -64
2020-10-16 20:09:39 GMT 42.871166 -86.564552 23,000 69 426 -64
2020-10-16 20:09:35 GMT 42.868973 -86.572327 23,000 69 426 0
2020-10-16 20:09:31 GMT 42.866043 -86.582870 23,000 69 426 0
2020-10-16 20:09:28 GMT 42.863937 -86.590408 23,000 69 426 0
2020-10-16 20:09:23 GMT 42.860600 -86.602219 23,000 69 426 64
2020-10-16 20:09:20 GMT 42.859203 -86.607254 23,000 68 426 64
2020-10-16 20:09:17 GMT 42.856430 -86.616974 23,000 68 426 64
2020-10-16 20:09:13 GMT 42.852905 -86.629494 23,000 68 426 0
2020-10-16 20:09:10 GMT 42.851429 -86.634781 23,000 68 426 0
2020-10-16 20:09:05 GMT 42.847641 -86.648018 23,000 68 426 -64
2020-10-16 20:09:00 GMT 42.842072 -86.667809 23,000 68 425 0
2020-10-16 20:08:56 GMT 42.842072 -86.667809 23,000 68 426 0
2020-10-16 20:08:53 GMT 42.838623 -86.680023 23,000 68 425 0
2020-10-16 20:08:50 GMT 42.837418 -86.684288 23,000 68 425 0
2020-10-16 20:08:45 GMT 42.833359 -86.698479 23,000 68 425 0
2020-10-16 20:08:42 GMT 42.828964 -86.714005 23,000 68 425 0
2020-10-16 20:08:38 GMT 42.828964 -86.714005 23,000 68 425 0
2020-10-16 20:08:34 GMT 42.826244 -86.723717 23,000 68 425 -64
2020-10-16 20:08:31 GMT 42.824100 -86.731178 23,000 68 425 -64
2020-10-16 20:08:24 GMT 42.818756 -86.749832 23,000 68 424 0
2020-10-16 20:08:19 GMT 42.815369 -86.761780 23,000 68 424 0
2020-10-16 20:08:14 GMT 42.811844 -86.774239 23,000 68 424 128
2020-10-16 20:08:11 GMT 42.808971 -86.783943 23,000 66 424 64
2020-10-16 20:08:05 GMT 42.804977 -86.795799 23,000 59 421 -64
2020-10-16 20:08:02 GMT 42.800949 -86.805473 23,000 58 421 -64
2020-10-16 20:07:58 GMT 42.797653 -86.812653 23,000 57 421 0
2020-10-16 20:07:54 GMT 42.793350 -86.821457 23,000 56 420 0
2020-10-16 20:07:51 GMT 42.790146 -86.828072 23,000 56 422 0
2020-10-16 20:07:46 GMT 42.785091 -86.838432 23,000 56 421 64
2020-10-16 20:07:43 GMT 42.781952 -86.844864 23,000 56 422 0
2020-10-16 20:07:40 GMT 42.778202 -86.852608 23,000 56 422 0
2020-10-16 20:07:37 GMT 42.776138 -86.856789 23,000 56 422 0
2020-10-16 20:07:33 GMT 42.771835 -86.865654 23,000 56 432 64
2020-10-16 20:07:30 GMT 42.768585 -86.872269 23,000 56 432 64
2020-10-16 20:07:27 GMT 42.764053 -86.881569 23,000 56 423 0
2020-10-16 20:07:24 GMT 42.760803 -86.888184 23,000 56 422 0
2020-10-16 20:07:19 GMT 42.756786 -86.896423 23,000 56 423 0
2020-10-16 20:07:16 GMT 42.753479 -86.903290 23,000 56 425 0
2020-10-16 20:07:12 GMT 42.749130 -86.912155 23,000 56 425 0
2020-10-16 20:07:08 GMT 42.743797 -86.923065 23,000 56 424 0
2020-10-16 20:07:00 GMT 42.736210 -86.938644 23,000 56 424 0
2020-10-16 20:06:57 GMT 42.732605 -86.945992 23,000 56 425 -64
2020-10-16 20:06:53 GMT 42.727085 -86.957359 23,000 56 426 -64
2020-10-16 20:06:50 GMT 42.725006 -86.961594 23,000 56 426 0
2020-10-16 20:06:47 GMT 42.721756 -86.968269 23,000 56 426 0
2020-10-16 20:06:44 GMT 42.717361 -86.977196 23,000 56 428 64
2020-10-16 20:06:41 GMT 42.715439 -86.981255 23,000 56 427 64
2020-10-16 20:06:36 GMT 42.708511 -86.995369 23,000 56 429 0
2020-10-16 20:06:32 GMT 42.704041 -87.004539 23,000 56 429 -64
2020-10-16 20:06:28 GMT 42.700832 -87.011017 23,000 56 429 -64
2020-10-16 20:06:25 GMT 42.697449 -87.018021 23,000 56 429 -64
2020-10-16 20:06:22 GMT 42.693237 -87.026573 23,000 56 432 0
2020-10-16 20:06:19 GMT 42.689941 -87.033318 23,000 56 430 0
2020-10-16 20:06:13 GMT 42.684448 -87.044556 23,000 56 431 64
2020-10-16 20:06:10 GMT 42.681107 -87.051353 23,000 56 432 0
2020-10-16 20:06:07 GMT 42.676666 -87.060349 23,000 56 434 0
2020-10-16 20:06:03 GMT 42.673370 -87.067146 23,000 56 434 0
2020-10-16 20:06:00 GMT 42.670258 -87.073517 23,000 56 434 0
2020-10-16 20:05:57 GMT 42.666229 -87.081635 23,000 56 434 0
2020-10-16 20:05:54 GMT 42.662987 -87.088242 23,000 56 434 0
2020-10-16 20:05:51 GMT 42.658749 -87.096863 23,000 56 436 0
2020-10-16 20:05:48 GMT 42.655396 -87.103699 23,000 56 437 0
2020-10-16 20:05:40 GMT 42.647003 -87.120834 23,000 56 438 0
2020-10-16 20:05:37 GMT 42.644302 -87.126328 23,000 56 439 0
2020-10-16 20:05:33 GMT 42.639477 -87.136147 23,000 56 439 0
2020-10-16 20:05:30 GMT 42.635742 -87.143745 23,000 56 440 0
2020-10-16 20:05:27 GMT 42.631897 -87.151543 23,000 56 441 0
2020-10-16 20:05:22 GMT 42.626347 -87.162781 23,000 56 441 -64
2020-10-16 20:05:19 GMT 42.622833 -87.169960 23,000 56 441 -64
2020-10-16 20:05:15 GMT 42.619217 -87.177322 23,000 56 442 -64
2020-10-16 20:05:12 GMT 42.611984 -87.192055 23,000 56 442 -64
2020-10-16 20:05:09 GMT 42.608704 -87.198746 23,000 56 442 0
2020-10-16 20:05:06 GMT 42.608704 -87.198746 23,000 56 442 0
2020-10-16 20:05:03 GMT 42.604706 -87.206787 23,000 56 442 0
2020-10-16 20:05:00 GMT 42.601627 -87.213051 23,000 56 442 0
2020-10-16 20:04:56 GMT 42.596184 -87.224098 23,000 56 442 0
2020-10-16 20:04:53 GMT 42.594498 -87.227577 23,000 56 442 0
2020-10-16 20:04:49 GMT 42.589920 -87.236748 23,000 56 443 0
2020-10-16 20:04:45 GMT 42.584930 -87.246925 23,000 56 444 0
2020-10-16 20:04:42 GMT 42.580124 -87.256599 23,000 56 444 0
2020-10-16 20:04:38 GMT 42.576691 -87.263596 23,000 56 444 0
2020-10-16 20:04:35 GMT 42.572254 -87.272583 23,000 56 444 0
2020-10-16 20:04:28 GMT 42.566063 -87.285095 23,000 56 445 -64
2020-10-16 20:04:25 GMT 42.561268 -87.294868 23,000 56 446 -64
2020-10-16 20:04:19 GMT 42.554031 -87.309471 23,000 56 446 -64
2020-10-16 20:04:16 GMT 42.551167 -87.315247 23,000 56 446 -64
2020-10-16 20:04:13 GMT 42.547852 -87.322021 23,000 56 446 -64
2020-10-16 20:04:07 GMT 42.536736 -87.344505 23,000 56 445 64
2020-10-16 20:04:03 GMT 42.536736 -87.344505 23,000 56 444 0
2020-10-16 20:04:00 GMT 42.532127 -87.353699 23,000 56 441 64
2020-10-16 20:03:56 GMT 42.525097 -87.367882 22,975 56 438 64
2020-10-16 20:03:52 GMT 42.525097 -87.367882 23,000 56 438 64
2020-10-16 20:03:49 GMT 42.521164 -87.375832 23,000 56 434 128
2020-10-16 20:03:46 GMT 42.517231 -87.383781 23,000 56 433 128
2020-10-16 20:03:42 GMT 42.512238 -87.393867 22,975 56 430 128
2020-10-16 20:03:37 GMT 42.507339 -87.403603 22,950 56 423 256
2020-10-16 20:03:33 GMT 42.503403 -87.411598 22,950 56 423 256
2020-10-16 20:03:30 GMT 42.499924 -87.418587 22,925 56 417 576
2020-10-16 20:03:26 GMT 42.495304 -87.427925 22,875 56 415 960
2020-10-16 20:03:22 GMT 42.490265 -87.438065 22,725 56 412 1536
2020-10-16 20:03:18 GMT 42.486649 -87.445305 22,675 56 411 1664
2020-10-16 20:03:14 GMT 42.482574 -87.453423 22,550 56 409 1728
2020-10-16 20:03:11 GMT 42.478775 -87.461037 22,450 56 409 1856
2020-10-16 20:03:04 GMT 42.471329 -87.476082 22,175 56 407 2624
2020-10-16 20:03:00 GMT 42.467560 -87.483681 21,875 56 407 2752
2020-10-16 20:02:56 GMT 42.462715 -87.493454 21,750 55 407 2624
2020-10-16 20:02:53 GMT 42.460575 -87.497673 21,700 55 407 2368
2020-10-16 20:02:50 GMT 42.456387 -87.506104 21,525 55 407 2112
2020-10-16 20:02:46 GMT 42.453094 -87.512657 21,500 55 399 2112
2020-10-16 20:02:43 GMT 42.449753 -87.519402 21,325 56 405 1728
2020-10-16 20:02:39 GMT 42.445541 -87.527824 21,200 56 404 1792
2020-10-16 20:02:35 GMT 42.441071 -87.536827 21,050 56 402 1984
2020-10-16 20:02:32 GMT 42.438557 -87.541870 20,975 56 402 2048
2020-10-16 20:02:29 GMT 42.435333 -87.548302 20,875 56 401 2112
2020-10-16 20:02:24 GMT 42.429749 -87.559540 20,650 55 399 2112
2020-10-16 20:02:19 GMT 42.424164 -87.570709 20,450 56 397 2176
2020-10-16 20:02:16 GMT 42.421921 -87.575203 20,350 56 396 2240
2020-10-16 20:02:12 GMT 42.418213 -87.582634 20,250 56 396 2176
2020-10-16 20:02:09 GMT 42.413837 -87.591438 20,000 56 396 2304
2020-10-16 20:02:06 GMT 42.411369 -87.596359 19,675 56 394 2368
2020-10-16 20:02:01 GMT 42.406769 -87.605606 19,775 56 394 2432
2020-10-16 20:01:58 GMT 42.404160 -87.610909 19,625 56 394 2368
2020-10-16 20:01:55 GMT 42.400990 -87.617241 19,550 55 393 2368
2020-10-16 20:01:51 GMT 42.396286 -87.626572 19,375 55 392 2304
2020-10-16 20:01:47 GMT 42.387451 -87.644241 19,150 55 387 2496
2020-10-16 20:01:43 GMT 42.385765 -87.647652 19,000 55 389 2240
2020-10-16 20:01:36 GMT 42.380630 -87.657913 18,725 56 388 2752
2020-10-16 20:01:32 GMT 42.377197 -87.664780 18,575 56 388 2752
2020-10-16 20:01:27 GMT 42.371288 -87.676643 17,675 55 387 2496
2020-10-16 20:01:24 GMT 42.369598 -87.680077 18,225 56 388 2560
2020-10-16 20:01:20 GMT 42.364746 -87.689690 18,025 55 386 2304
2020-10-16 20:01:14 GMT 42.359161 -87.700859 17,800 56 384 2176
2020-10-16 20:01:11 GMT 42.356068 -87.707054 17,675 56 383 2176
2020-10-16 20:01:08 GMT 42.353989 -87.711220 17,600 56 383 2240
2020-10-16 20:01:04 GMT 42.348942 -87.721298 17,400 56 381 2496
2020-10-16 20:01:00 GMT 42.340759 -87.737625 17,000 55 378 2624
2020-10-16 20:00:56 GMT 42.340759 -87.737625 16,975 55 378 2496
2020-10-16 20:00:53 GMT 42.338608 -87.741936 16,975 55 378 2496
2020-10-16 20:00:49 GMT 42.335083 -87.748924 16,775 56 376 2496
2020-10-16 20:00:46 GMT 42.331718 -87.755791 16,575 56 376 2688
2020-10-16 20:00:43 GMT 42.328602 -87.761986 16,525 55 375 2880
2020-10-16 20:00:40 GMT 42.326157 -87.766846 16,175 56 374 3264
2020-10-16 20:00:37 GMT 42.323639 -87.771896 16,175 56 374 3264
2020-10-16 20:00:34 GMT 42.319382 -87.780449 15,875 56 374 3008
2020-10-16 20:00:31 GMT 42.316086 -87.787003 15,675 56 375 2048
2020-10-16 20:00:28 GMT 42.313656 -87.791878 15,650 56 375 2240
2020-10-16 20:00:22 GMT 42.308350 -87.802544 15,500 55 371 1344
2020-10-16 20:00:19 GMT 42.302811 -87.813095 15,350 51 365 1344
2020-10-16 20:00:12 GMT 42.297318 -87.821587 15,250 43 355 1280
2020-10-16 20:00:09 GMT 42.295547 -87.824005 15,175 39 350 1280
2020-10-16 20:00:06 GMT 42.291733 -87.828453 15,150 37 347 1216
2020-10-16 20:00:02 GMT 42.285633 -87.834351 14,650 18 313 2112
2020-10-16 19:59:58 GMT 42.278835 -87.839333 14,975 27 333 1216
2020-10-16 19:59:55 GMT 42.276489 -87.840752 14,900 22 326 1280
2020-10-16 19:59:51 GMT 42.264496 -87.846428 14,725 18 310 2368
2020-10-16 19:59:48 GMT 42.264496 -87.846428 14,625 18 312 2112
2020-10-16 19:59:45 GMT 42.262730 -87.847191 14,375 17 311 2176
2020-10-16 19:59:42 GMT 42.257236 -87.849556 14,325 18 308 2752
2020-10-16 19:59:39 GMT 42.252628 -87.851601 14,200 18 307 3136
2020-10-16 19:59:36 GMT 42.248856 -87.853256 14,075 18 306 3264
2020-10-16 19:59:31 GMT 42.238895 -87.857666 13,675 18 307 3712
2020-10-16 19:59:28 GMT 42.238895 -87.857666 13,225 18 308 3520
2020-10-16 19:59:25 GMT 42.235245 -87.859291 13,450 18 307 3712
2020-10-16 19:59:20 GMT 42.227768 -87.862587 13,100 18 308 3264
2020-10-16 19:59:17 GMT 42.223297 -87.864532 12,925 18 308 3072
2020-10-16 19:59:14 GMT 42.220596 -87.865715 12,825 18 308 3136
2020-10-16 19:59:11 GMT 42.215469 -87.867966 12,525 18 307 3328
2020-10-16 19:59:08 GMT 42.206032 -87.872978 10,900 17 296 3904
2020-10-16 19:59:05 GMT 42.202110 -87.874657 10,900 17 296 3904
2020-10-16 19:59:02 GMT 42.202110 -87.874657 10,900 17 296 3904
2020-10-16 19:58:59 GMT 42.198189 -87.876343 10,900 17 296 3904
2020-10-16 19:58:56 GMT 42.194279 -87.878021 10,900 17 296 3904
2020-10-16 19:58:53 GMT 42.190361 -87.879707 10,900 17 296 3904
2020-10-16 19:58:50 GMT 42.182529 -87.883072 10,900 17 296 3904
2020-10-16 19:58:47 GMT 42.182529 -87.883072 10,900 17 296 3904
2020-10-16 19:58:44 GMT 42.178612 -87.884750 10,900 17 296 3904
2020-10-16 19:58:41 GMT 42.174690 -87.886429 10,825 18 297 3008
2020-10-16 19:58:38 GMT 42.170719 -87.888000 10,900 17 296 3904
2020-10-16 19:58:35 GMT 42.162880 -87.891380 10,300 17 295 3840
2020-10-16 19:58:32 GMT 42.162880 -87.891380 10,300 17 295 3840
2020-10-16 19:58:29 GMT 42.159027 -87.892746 10,275 17 295 3584
2020-10-16 19:58:26 GMT 42.155109 -87.894798 9,700 17 295 3840
2020-10-16 19:58:23 GMT 42.151249 -87.896507 9,700 17 296 3840
2020-10-16 19:58:20 GMT 42.143341 -87.900002 9,400 17 293 3840
2020-10-16 19:58:14 GMT 42.139408 -87.901672 8,900 17 292 3840
2020-10-16 19:58:11 GMT 42.135330 -87.903511 8,900 17 288 3840
2020-10-16 19:58:08 GMT 42.131519 -87.905159 8,900 17 288 3840
2020-10-16 19:58:05 GMT 42.127621 -87.906799 8,600 18 286 3840
2020-10-16 19:58:02 GMT 42.123852 -87.908440 8,600 18 286 3840
2020-10-16 19:57:59 GMT 42.119720 -87.909981 8,400 18 285 3840
2020-10-16 19:57:56 GMT 42.112450 -87.913254 8,300 18 288 3840
2020-10-16 19:57:53 GMT 42.112450 -87.913254 8,200 18 285 3840
2020-10-16 19:57:50 GMT 42.108742 -87.914803 7,700 19 284 3840
2020-10-16 19:57:47 GMT 42.104939 -87.916451 7,700 19 286 3840
2020-10-16 19:57:44 GMT 42.101139 -87.918251 7,600 18 285 3648
2020-10-16 19:57:41 GMT 42.097439 -87.919479 7,400 20 285 3840
2020-10-16 19:57:38 GMT 42.093800 -87.920708 7,300 21 279 3840
2020-10-16 19:57:35 GMT 42.086449 -87.924210 6,700 23 301 800
2020-10-16 19:57:32 GMT 42.086449 -87.924210 6,700 22 297 800
2020-10-16 19:57:29 GMT 42.082691 -87.926147 6,500 21 298 800
2020-10-16 19:57:26 GMT 42.078678 -87.928391 6,500 21 298 800
2020-10-16 19:57:23 GMT 42.075081 -87.930794 6,400 19 287 800
2020-10-16 19:57:20 GMT 42.071308 -87.933731 5,900 10 276 800
2020-10-16 19:57:17 GMT 42.063904 -87.934448 5,700 359 271 800
2020-10-16 19:57:14 GMT 42.063904 -87.934448 5,700 359 271 800
2020-10-16 19:57:11 GMT 42.059841 -87.935608 5,600 358 270 800
2020-10-16 19:57:08 GMT 42.056061 -87.935677 5,200 359 262 800
2020-10-16 19:57:05 GMT 42.052380 -87.935417 5,200 0 267 800
2020-10-16 19:57:02 GMT 42.048592 -87.935249 5,100 1 267 800
2020-10-16 19:56:59 GMT 42.045052 -87.935463 5,050 1 278 800
2020-10-16 19:56:56 GMT 42.041451 -87.935707 4,775 0 268 3328
2020-10-16 19:56:53 GMT 42.037418 -87.935661 4,600 0 260 800
2020-10-16 19:56:50 GMT 42.033760 -87.935562 4,550 1 260 800
2020-10-16 19:56:47 GMT 42.030460 -87.935829 4,475 1 257 800
2020-10-16 19:56:44 GMT 42.026600 -87.935791 4,400 2 246 -64
2020-10-16 19:56:41 GMT 42.023540 -87.936050 4,400 1 246 -480
2020-10-16 19:56:38 GMT 42.016869 -87.936234 4,400 0 241 3904
2020-10-16 19:56:35 GMT 42.013741 -87.936333 4,200 1 242 3904
2020-10-16 19:56:32 GMT 42.013741 -87.936333 4,200 1 234 3904
2020-10-16 19:56:29 GMT 42.010380 -87.936348 4,200 2 219 3904
2020-10-16 19:56:26 GMT 42.007359 -87.936569 4,175 0 222 3904
2020-10-16 19:56:23 GMT 42.004452 -87.936661 4,050 0 209 3904
2020-10-16 19:56:20 GMT 42.001469 -87.936638 3,950 1 207 3904
2020-10-16 19:56:17 GMT 41.998692 -87.936768 3,600 3 198 3904
2020-10-16 19:56:14 GMT 41.995972 -87.936920 3,600 3 187 3904
2020-10-16 19:56:11 GMT 41.993340 -87.937088 3,600 3 184 3904
2020-10-16 19:56:08 GMT 41.990761 -87.937134 3,500 3 178 3904
2020-10-16 19:56:05 GMT 41.986000 -87.937241 3,000 357 175 3904
2020-10-16 19:56:02 GMT 41.986000 -87.937241 3,000 349 167 3904
2020-10-16 19:55:59 GMT 41.983662 -87.936913 3,000 344 164 3904
2020-10-16 19:55:56 GMT 41.981468 -87.936081 2,800 337 159 3904
2020-10-16 19:55:53 GMT 41.979511 -87.934868 2,600 326 155 3904
2020-10-16 19:55:50 GMT 41.977730 -87.933228 2,150 317 151 3904
2020-10-16 19:55:47 GMT 41.976158 -87.931480 2,150 312 155 3904
2020-10-16 19:55:44 GMT 41.974709 -87.929337 1,900 308 155 3904
2020-10-16 19:55:41 GMT 41.973370 -87.927147 1,225 305 155 3904
2020-10-16 19:55:38 GMT 41.972172 -87.924789 1,225 302 155 3904
2020-10-16 19:55:35 GMT 41.971142 -87.922310 1,225 297 152 128
2020-10-16 19:55:32 GMT 41.969650 -87.917343 1,225 286 142 128
2020-10-16 19:55:29 GMT 41.969650 -87.917343 900 280 142 128
2020-10-16 19:55:26 GMT 41.969269 -87.914749 850 273 144 128
2020-10-16 19:55:23 GMT 41.969109 -87.912201 725 271 145 128
2020-10-16 19:55:20 GMT 41.969082 -87.909576 625 271 145 128
2020-10-16 19:55:17 GMT 41.969028 -87.904518 525 270 127 -128
2020-10-16 19:55:14 GMT 41.969028 -87.904518 525 269 119 -128
2020-10-16 19:55:11 GMT 41.969040 -87.902313 0 269 108 -128
2020-10-16 19:55:08 GMT 41.969059 -87.900391 0 271 85
2020-10-16 19:55:05 GMT 41.969059 -87.898781 0 271 69
2020-10-16 19:55:02 GMT 41.969040 -87.897530 0 270 52
2020-10-16 19:54:59 GMT 41.969040 -87.896690 0 271 20
2020-10-16 19:54:56 GMT 41.969040 -87.896263 0 310 6
2020-10-16 19:54:52 GMT 41.969028 -87.896233 0 318 1
2020-10-16 19:54:49 GMT 41.969070 -87.896202 0 315 0
2020-10-16 19:54:44 GMT 41.969051 -87.896233 0 312 0
2020-10-16 19:54:41 GMT 41.969040 -87.896233 0 312 1
2020-10-16 19:54:38 GMT 41.969051 -87.896217 0 312 0
2020-10-16 19:54:35 GMT 41.969051 -87.896210 0 306 0
2020-10-16 19:54:32 GMT 41.969051 -87.896210 0 306 0
2020-10-16 19:54:29 GMT 41.969040 -87.896210 0 305 0
2020-10-16 19:54:26 GMT 41.969040 -87.896202 0 305 1
2020-10-16 19:54:23 GMT 41.969051 -87.896202 0 290 1
2020-10-16 19:54:20 GMT 41.969070 -87.896233 0 278 2
2020-10-16 19:54:17 GMT 41.969059 -87.896187 0 289 9
2020-10-16 19:54:14 GMT 41.969059 -87.896072 0 263 12
2020-10-16 19:54:11 GMT 41.969021 -87.895828 0 223 10
2020-10-16 19:54:08 GMT 41.969070 -87.895699 0 206 12
2020-10-16 19:54:05 GMT 41.969452 -87.895554 0 179 17
2020-10-16 19:54:02 GMT 41.969452 -87.895554 0 176 14
2020-10-16 19:53:56 GMT 41.969799 -87.895576 0 173 6
2020-10-16 19:53:53 GMT 41.969879 -87.895569 0 159 4
2020-10-16 19:53:50 GMT 41.969940 -87.895607 0 141 0
2020-10-16 19:53:47 GMT 41.969952 -87.895599 0 141 3
2020-10-16 19:53:44 GMT 41.969959 -87.895660 0 143 1
2020-10-16 19:53:41 GMT 41.970001 -87.895638 0 136 3
2020-10-16 19:53:38 GMT 41.970070 -87.895699 0 128 2
2020-10-16 19:53:35 GMT 41.970070 -87.895699 0 126 2
2020-10-16 19:53:32 GMT 41.970081 -87.895737 0 126 6
2020-10-16 19:53:29 GMT 41.970119 -87.895790 0 125 6
2020-10-16 19:53:26 GMT 41.970169 -87.895866 0 122 5
2020-10-16 19:53:23 GMT 41.970200 -87.895988 0 122 7
2020-10-16 19:53:20 GMT 41.970280 -87.896088 0 113 5
2020-10-16 19:53:17 GMT 41.970299 -87.896149 0 106 4
2020-10-16 19:53:14 GMT 41.970299 -87.896233 0 117 4
2020-10-16 19:53:11 GMT 41.970329 -87.896332 0 107 4
2020-10-16 19:53:08 GMT 41.970371 -87.896370 0 105 2
2020-10-16 19:53:05 GMT 41.970390 -87.896461 0 93 1
2020-10-16 19:53:02 GMT 41.970402 -87.896492 0 93 1
2020-10-16 19:52:59 GMT 41.970390 -87.896500 0 100 4
2020-10-16 19:52:56 GMT 41.970409 -87.896637 0 87 4
2020-10-16 19:52:53 GMT 41.970409 -87.896637 0 92 4
2020-10-16 19:52:50 GMT 41.970409 -87.896744 0 94 2
2020-10-16 19:52:47 GMT 41.970428 -87.896751 0 89 5
2020-10-16 19:52:44 GMT 41.970440 -87.896873 0 90 1
2020-10-16 19:52:41 GMT 41.970409 -87.896919 0 88 3
2020-10-16 19:52:38 GMT 41.970428 -87.897003 0 101 3
2020-10-16 19:52:35 GMT 41.970402 -87.897041 0 102 3
2020-10-16 19:52:32 GMT 41.970440 -87.897102 0 85 3
2020-10-16 19:52:29 GMT 41.970428 -87.897171 0 87 3
2020-10-16 19:52:26 GMT 41.970421 -87.897202 0 90 4
2020-10-16 19:52:23 GMT 41.970409 -87.897270 0 94 3
2020-10-16 19:52:19 GMT 41.970428 -87.897331 0 86 5
2020-10-16 19:52:16 GMT 41.970421 -87.897430 0 70 2
2020-10-16 19:52:13 GMT 41.970440 -87.897438 0 85 4
2020-10-16 19:52:10 GMT 41.970409 -87.897522 0 92 1
2020-10-16 19:52:07 GMT 41.970390 -87.897537 0 92 1
2020-10-16 19:52:04 GMT 41.970421 -87.897583 0 83 2
2020-10-16 19:52:01 GMT 41.970390 -87.897621 0 83 2
2020-10-16 19:51:58 GMT 41.970428 -87.897636 0 91 5
2020-10-16 19:51:55 GMT 41.970402 -87.897751 0 98 1
2020-10-16 19:51:52 GMT 41.970409 -87.897720 0 98 0
2020-10-16 19:51:48 GMT 41.970421 -87.897713 0 99 4
2020-10-16 19:51:45 GMT 41.970409 -87.897758 0 97 2
2020-10-16 19:51:42 GMT 41.970409 -87.897820 0 84 5
2020-10-16 19:51:39 GMT 41.970421 -87.897903 0 85 0
2020-10-16 19:51:36 GMT 41.970409 -87.897911 0 85 0
2020-10-16 19:51:33 GMT 41.970421 -87.897919 0 84 3
2020-10-16 19:51:30 GMT 41.970421 -87.897919 0 68 4
2020-10-16 19:51:27 GMT 41.970421 -87.898010 0 85 4
2020-10-16 19:51:24 GMT 41.970379 -87.898079 0 87 5
2020-10-16 19:51:21 GMT 41.970409 -87.898132 0 87 3
2020-10-16 19:51:18 GMT 41.970402 -87.898232 0 89 1
2020-10-16 19:51:15 GMT 41.970421 -87.898247 0 89 3
2020-10-16 19:51:12 GMT 41.970428 -87.898323 0 85 4
2020-10-16 19:51:09 GMT 41.970421 -87.898369 0 94 1
2020-10-16 19:51:06 GMT 41.970440 -87.898392 0 90 1
2020-10-16 19:51:03 GMT 41.970409 -87.898499 0 100 2
2020-10-16 19:51:00 GMT 41.970409 -87.898499 0 99 3
2020-10-16 19:50:57 GMT 41.970409 -87.898537 0 87 4
2020-10-16 19:50:54 GMT 41.970402 -87.898621 0 96 5
2020-10-16 19:50:51 GMT 41.970409 -87.898682 0 101 5
2020-10-16 19:50:48 GMT 41.970409 -87.898758 0 92 4
2020-10-16 19:50:45 GMT 41.970428 -87.898842 0 68 5
2020-10-16 19:50:42 GMT 41.970402 -87.898911 0 68 4
2020-10-16 19:50:39 GMT 41.970402 -87.899063 0 94 1
2020-10-16 19:50:36 GMT 41.970409 -87.899063 0 95 2
2020-10-16 19:50:33 GMT 41.970390 -87.899071 0 82 5
2020-10-16 19:50:30 GMT 41.970440 -87.899162 0 64 2
2020-10-16 19:50:27 GMT 41.970379 -87.899193 0 94 6
2020-10-16 19:50:24 GMT 41.970402 -87.899300 0 90 3
2020-10-16 19:50:21 GMT 41.970390 -87.899361 0 102 4
2020-10-16 19:50:18 GMT 41.970409 -87.899429 0 89 4
2020-10-16 19:50:15 GMT 41.970402 -87.899544 0 87 3
2020-10-16 19:50:12 GMT 41.970409 -87.899620 0 85 4
2020-10-16 19:50:09 GMT 41.970402 -87.899643 0 91 4
2020-10-16 19:50:06 GMT 41.970390 -87.899719 0 92 5
2020-10-16 19:50:03 GMT 41.970390 -87.899803 0 97 4
2020-10-16 19:50:00 GMT 41.970402 -87.899979 0 89 3
2020-10-16 19:49:57 GMT 41.970409 -87.900017 0 86 4
2020-10-16 19:49:54 GMT 41.970409 -87.900017 0 72 4
2020-10-16 19:49:51 GMT 41.970390 -87.900093 0 85 4
2020-10-16 19:49:48 GMT 41.970379 -87.900146 0 103 4
2020-10-16 19:49:45 GMT 41.970409 -87.900230 0 95 2
2020-10-16 19:49:42 GMT 41.970402 -87.900261 0 95 3
2020-10-16 19:49:39 GMT 41.970379 -87.900383 0 96 2
2020-10-16 19:49:36 GMT 41.970379 -87.900383 0 91 3
2020-10-16 19:49:33 GMT 41.970390 -87.900414 0 86 4
2020-10-16 19:49:30 GMT 41.970402 -87.900482 0 103 3
2020-10-16 19:49:27 GMT 41.970390 -87.900551 0 103 4
2020-10-16 19:49:24 GMT 41.970421 -87.900620 0 88 6
2020-10-16 19:49:21 GMT 41.970402 -87.900726 0 83 4
2020-10-16 19:49:18 GMT 41.970409 -87.900803 0 88 5
2020-10-16 19:49:15 GMT 41.970390 -87.900879 0 90 3
2020-10-16 19:49:12 GMT 41.970379 -87.900932 0 89 2
2020-10-16 19:49:09 GMT 41.970421 -87.900978 0 86 4
2020-10-16 19:49:06 GMT 41.970409 -87.901100 0 96 3
2020-10-16 19:49:03 GMT 41.970409 -87.901176 0 80 5
2020-10-16 19:49:00 GMT 41.970409 -87.901176 0 91 3
2020-10-16 19:48:57 GMT 41.970402 -87.901314 0 86 2
2020-10-16 19:48:54 GMT 41.970402 -87.901360 0 86 4
2020-10-16 19:48:51 GMT 41.970409 -87.901398 0 81 5
2020-10-16 19:48:48 GMT 41.970390 -87.901611 0 88 3
2020-10-16 19:48:45 GMT 41.970390 -87.901611 0 88 2
2020-10-16 19:48:39 GMT 41.970390 -87.901703 0 87 1
2020-10-16 19:48:36 GMT 41.970390 -87.901711 0 87 0
2020-10-16 19:48:32 GMT 41.970402 -87.901733 0 87 0
2020-10-16 19:48:28 GMT 41.970402 -87.901733 0 87 0
2020-10-16 19:48:25 GMT 41.970390 -87.901733 0 88 2
2020-10-16 19:48:22 GMT 41.970390 -87.901779 0 88 0
2020-10-16 19:48:18 GMT 41.970390 -87.901779 0 89 0
2020-10-16 19:48:15 GMT 41.970390 -87.901787 0 90 0
2020-10-16 19:48:12 GMT 41.970379 -87.901772 0 90 0
2020-10-16 19:48:09 GMT 41.970379 -87.901779 0 94 2
2020-10-16 19:48:06 GMT 41.970371 -87.901840 0 89 5
2020-10-16 19:48:03 GMT 41.970371 -87.901917 0 93 1
2020-10-16 19:48:00 GMT 41.970379 -87.901939 0 92 2
2020-10-16 19:47:57 GMT 41.970402 -87.901978 0 89 2
2020-10-16 19:47:54 GMT 41.970390 -87.902000 0 91 0
2020-10-16 19:47:50 GMT 41.970390 -87.902000 0 91 0
2020-10-16 19:47:47 GMT 41.970402 -87.902008 0 92 1
2020-10-16 19:47:44 GMT 41.970402 -87.902031 0 93 1
2020-10-16 19:47:41 GMT 41.970379 -87.902061 0 92 1
2020-10-16 19:47:38 GMT 41.970409 -87.902138 0 87 2
2020-10-16 19:47:35 GMT 41.970390 -87.902153 0 87 2
2020-10-16 19:47:32 GMT 41.970390 -87.902206 0 87 1
2020-10-16 19:47:29 GMT 41.970390 -87.902229 0 87 1
2020-10-16 19:47:26 GMT 41.970402 -87.902237 0 90 4
2020-10-16 19:47:23 GMT 41.970371 -87.902252 0 96 1
2020-10-16 19:47:20 GMT 41.970402 -87.902321 0 82 4
2020-10-16 19:47:17 GMT 41.970390 -87.902359 0 79 3
2020-10-16 19:47:14 GMT 41.970390 -87.902412 0 85 4
2020-10-16 19:47:11 GMT 41.970402 -87.902496 0 80 4
2020-10-16 19:47:08 GMT 41.970390 -87.902611 0 88 4
2020-10-16 19:47:05 GMT 41.970390 -87.902611 0 83 4
2020-10-16 19:47:02 GMT 41.970390 -87.902657 0 96 3
2020-10-16 19:46:59 GMT 41.970379 -87.902748 0 95 5
2020-10-16 19:46:56 GMT 41.970390 -87.902847 0 94 5
2020-10-16 19:46:53 GMT 41.970390 -87.902901 0 90 4
2020-10-16 19:46:50 GMT 41.970390 -87.903000 0 90 7
2020-10-16 19:46:47 GMT 41.970379 -87.903099 0 94 3
2020-10-16 19:46:44 GMT 41.970402 -87.903152 0 81 6
2020-10-16 19:46:41 GMT 41.970379 -87.903267 0 94 5
2020-10-16 19:46:38 GMT 41.970390 -87.903351 0 95 6
2020-10-16 19:46:35 GMT 41.970390 -87.903503 0 92 6
2020-10-16 19:46:32 GMT 41.970390 -87.903587 0 101 5
2020-10-16 19:46:29 GMT 41.970409 -87.903740 0 82 5
2020-10-16 19:46:26 GMT 41.970402 -87.903816 0 87 6
2020-10-16 19:46:23 GMT 41.970390 -87.903923 0 88 6
2020-10-16 19:46:20 GMT 41.970390 -87.904030 0 90 7
2020-10-16 19:46:17 GMT 41.970402 -87.904137 0 89 5
2020-10-16 19:46:14 GMT 41.970402 -87.904221 0 101 6
2020-10-16 19:46:11 GMT 41.970421 -87.904488 0 94 5
2020-10-16 19:46:08 GMT 41.970428 -87.904694 0 90 8
2020-10-16 19:46:05 GMT 41.970428 -87.904694 0 96 2
2020-10-16 19:46:02 GMT 41.970428 -87.904732 0 100 2
2020-10-16 19:45:59 GMT 41.970402 -87.904747 0 103 1
2020-10-16 19:45:56 GMT 41.970371 -87.904778 0 103 0
2020-10-16 19:45:53 GMT 41.970371 -87.904770 0 103 1
2020-10-16 19:45:50 GMT 41.970402 -87.904793 0 103 1
2020-10-16 19:45:47 GMT 41.970341 -87.904808 0 102 0
2020-10-16 19:45:44 GMT 41.970341 -87.904808 0 98 2
2020-10-16 19:45:41 GMT 41.970390 -87.904778 0 95 1
2020-10-16 19:45:38 GMT 41.970371 -87.904793 0 94 0
2020-10-16 19:45:35 GMT 41.970390 -87.904762 0 94 0
2020-10-16 19:45:32 GMT 41.970390 -87.904770 0 94 0
2020-10-16 19:45:29 GMT 41.970402 -87.904770 0 94 0
2020-10-16 19:45:24 GMT 41.970390 -87.904770 0 98 0
2020-10-16 19:45:21 GMT 41.970390 -87.904762 0 98 0
2020-10-16 19:45:18 GMT 41.970390 -87.904770 0 98 0
2020-10-16 19:45:15 GMT 41.970379 -87.904770 0 98 0
2020-10-16 19:45:12 GMT 41.970390 -87.904778 0 98 0
2020-10-16 19:45:09 GMT 41.970379 -87.904770 0 98 0
2020-10-16 19:45:06 GMT 41.970409 -87.904831 0 92 3
2020-10-16 19:45:03 GMT 41.970409 -87.904831 0 84 3
2020-10-16 19:45:00 GMT 41.970390 -87.904892 0 94 2
2020-10-16 19:44:57 GMT 41.970390 -87.904930 0 92 5
2020-10-16 19:44:54 GMT 41.970409 -87.905022 0 90 8
2020-10-16 19:44:51 GMT 41.970379 -87.905159 0 83 5
2020-10-16 19:44:48 GMT 41.970390 -87.905251 0 100 3
2020-10-16 19:44:45 GMT 41.970390 -87.905296 0 94 4
2020-10-16 19:44:42 GMT 41.970402 -87.905373 0 81 4
2020-10-16 19:44:39 GMT 41.970390 -87.905457 0 87 4
2020-10-16 19:44:36 GMT 41.970390 -87.905502 0 87 2
2020-10-16 19:44:33 GMT 41.970371 -87.905586 0 82 3
2020-10-16 19:44:29 GMT 41.970390 -87.905609 0 83 3
2020-10-16 19:44:26 GMT 41.970390 -87.905640 0 79 2
2020-10-16 19:44:23 GMT 41.970379 -87.905724 0 87 0
2020-10-16 19:44:20 GMT 41.970402 -87.905724 0 87 0
2020-10-16 19:44:17 GMT 41.970379 -87.905769 0 88 0
2020-10-16 19:44:14 GMT 41.970379 -87.905746 0 87 2
2020-10-16 19:44:11 GMT 41.970379 -87.905777 0 84 2
2020-10-16 19:44:08 GMT 41.970390 -87.905823 0 80 1
2020-10-16 19:44:05 GMT 41.970390 -87.905884 0 73 1
2020-10-16 19:44:02 GMT 41.970402 -87.905922 0 75 5
2020-10-16 19:43:59 GMT 41.970402 -87.905922 0 82 5
2020-10-16 19:43:56 GMT 41.970379 -87.905991 0 80 10
2020-10-16 19:43:53 GMT 41.970360 -87.906151 0 91 8
2020-10-16 19:43:50 GMT 41.970360 -87.906311 0 102 8
2020-10-16 19:43:47 GMT 41.970390 -87.906448 0 89 9
2020-10-16 19:43:44 GMT 41.970402 -87.906609 0 92 11
2020-10-16 19:43:41 GMT 41.970390 -87.906822 0 95 9
2020-10-16 19:43:38 GMT 41.970428 -87.906990 0 74 11
2020-10-16 19:43:35 GMT 41.970371 -87.907219 0 96 9
2020-10-16 19:43:32 GMT 41.970390 -87.907402 0 96 12
2020-10-16 19:43:29 GMT 41.970421 -87.907600 0 92 11
2020-10-16 19:43:26 GMT 41.970402 -87.907784 0 88 10
2020-10-16 19:43:23 GMT 41.970390 -87.907921 0 97 12
2020-10-16 19:43:20 GMT 41.970402 -87.908180 0 108 8
2020-10-16 19:43:17 GMT 41.970451 -87.908348 0 121 10
2020-10-16 19:43:14 GMT 41.970520 -87.908531 0 120 12
2020-10-16 19:43:11 GMT 41.970589 -87.908699 0 123 12
2020-10-16 19:43:08 GMT 41.970860 -87.908951 0 141 12
2020-10-16 19:43:05 GMT 41.970860 -87.908951 0 134 12
2020-10-16 19:43:02 GMT 41.971001 -87.909126 0 146 12
2020-10-16 19:42:59 GMT 41.971081 -87.909218 0 138 14
2020-10-16 19:42:56 GMT 41.971359 -87.909554 0 138 10
2020-10-16 19:42:53 GMT 41.971359 -87.909554 0 145 9
2020-10-16 19:42:50 GMT 41.971458 -87.909630 0 146 12
2020-10-16 19:42:47 GMT 41.971611 -87.909813 0 146 8
2020-10-16 19:42:44 GMT 41.971710 -87.909889 0 139 11
2020-10-16 19:42:41 GMT 41.971828 -87.910011 0 133 11
2020-10-16 19:42:38 GMT 41.971951 -87.910187 0 142 12
2020-10-16 19:42:35 GMT 41.972061 -87.910278 0 134 13
2020-10-16 19:42:32 GMT 41.972172 -87.910469 0 158 13
2020-10-16 19:42:29 GMT 41.972462 -87.910522 0 201 12
2020-10-16 19:42:26 GMT 41.972462 -87.910522 0 212 10
2020-10-16 19:42:23 GMT 41.972610 -87.910492 0 222 12
2020-10-16 19:42:20 GMT 41.972721 -87.910332 0 219 11
2020-10-16 19:42:17 GMT 41.972870 -87.910202 0 241 11
2020-10-16 19:42:14 GMT 41.972931 -87.910019 0 235 10
2020-10-16 19:42:11 GMT 41.973030 -87.909897 0 233 13
2020-10-16 19:42:08 GMT 41.973129 -87.909714 0 230 11
2020-10-16 19:42:05 GMT 41.973228 -87.909569 0 242 11
2020-10-16 19:42:02 GMT 41.973309 -87.909393 0 241 12
2020-10-16 19:41:59 GMT 41.973381 -87.909233 0 277 11
2020-10-16 19:41:56 GMT 41.973400 -87.909050 0 297 13
2020-10-16 19:41:53 GMT 41.973339 -87.908791 0 319 10
2020-10-16 19:41:50 GMT 41.973251 -87.908722 0 314 15
2020-10-16 19:41:47 GMT 41.973099 -87.908508 0 311 13
2020-10-16 19:41:44 GMT 41.972980 -87.908333 0 313 13
2020-10-16 19:41:41 GMT 41.972851 -87.908180 0 307 14
2020-10-16 19:41:38 GMT 41.972752 -87.907959 0 308 15
2020-10-16 19:41:35 GMT 41.972618 -87.907799 0 303 13
2020-10-16 19:41:32 GMT 41.972511 -87.907600 0 309 16
2020-10-16 19:41:29 GMT 41.972408 -87.907341 0 299 11
2020-10-16 19:41:26 GMT 41.972321 -87.907150 0 292 14
2020-10-16 19:41:23 GMT 41.972221 -87.906670 0 277 14
2020-10-16 19:41:20 GMT 41.972221 -87.906670 0 274 13
2020-10-16 19:41:17 GMT 41.972172 -87.906418 0 262 12
2020-10-16 19:41:14 GMT 41.972172 -87.906212 0 265 14
2020-10-16 19:41:11 GMT 41.972210 -87.905937 0 256 15
2020-10-16 19:41:08 GMT 41.972240 -87.905693 0 248 13
2020-10-16 19:41:05 GMT 41.972279 -87.905411 0 236 10
2020-10-16 19:41:02 GMT 41.972401 -87.905128 0 193 4
2020-10-16 19:40:59 GMT 41.972401 -87.905060 0 181 5
2020-10-16 19:40:56 GMT 41.972488 -87.904991 0 143 5
2020-10-16 19:40:53 GMT 41.972549 -87.904953 0 115 1
2020-10-16 19:40:50 GMT 41.972630 -87.904953 0 115 0
2020-10-16 19:40:47 GMT 41.972649 -87.904953 0 115 1
2020-10-16 19:40:44 GMT 41.972580 -87.904892 0 117 2
2020-10-16 19:40:41 GMT 41.972580 -87.904892 0 118 2
2020-10-16 19:40:38 GMT 41.972549 -87.904961 0 119 0
2020-10-16 19:40:35 GMT 41.972599 -87.904953 0 119 0
2020-10-16 19:40:32 GMT 41.972610 -87.904961 0 119 0
2020-10-16 19:40:29 GMT 41.972649 -87.904953 0 119 0
2020-10-16 19:40:26 GMT 41.972618 -87.904961 0 122 0
2020-10-16 19:40:23 GMT 41.972649 -87.904930 0 124 0
2020-10-16 19:40:20 GMT 41.972591 -87.904953 0 126 0
2020-10-16 19:40:17 GMT 41.972641 -87.904938 0 128 0
2020-10-16 19:40:14 GMT 41.972618 -87.904938 0 128 0
2020-10-16 19:40:11 GMT 41.972618 -87.904922 0 130 1
2020-10-16 19:40:08 GMT 41.972591 -87.904961 0 131 0
2020-10-16 19:40:05 GMT 41.972630 -87.904930 0 129 0
2020-10-16 19:40:02 GMT 41.972691 -87.904907 0 132 1
2020-10-16 19:39:59 GMT 41.972630 -87.904938 0 135 0
2020-10-16 19:39:56 GMT 41.972610 -87.904930 0 138 2
2020-10-16 19:39:53 GMT 41.972561 -87.904968 0 141 0
2020-10-16 19:39:50 GMT 41.972599 -87.904953 0 140 0
2020-10-16 19:39:47 GMT 41.972542 -87.904984 0 139 2
2020-10-16 19:39:44 GMT 41.972580 -87.904961 0 139 1
2020-10-16 19:39:41 GMT 41.972660 -87.904930 0 142 1
2020-10-16 19:39:38 GMT 41.972599 -87.904968 0 142 1
2020-10-16 19:39:35 GMT 41.972630 -87.904922 0 139 1
2020-10-16 19:39:32 GMT 41.972569 -87.904930 0 173 3
2020-10-16 19:39:29 GMT 41.972580 -87.904930 0 182 2
2020-10-16 19:39:26 GMT 41.972580 -87.904930 0 185 1
2020-10-16 19:39:23 GMT 41.972549 -87.904961 0 185 1
2020-10-16 19:39:20 GMT 41.972561 -87.904961 0 186 1
2020-10-16 19:39:17 GMT 41.972549 -87.904984 0 182 2
2020-10-16 19:39:14 GMT 41.972569 -87.904930 0 183 1
2020-10-16 19:39:11 GMT 41.972561 -87.904991 0 185 1
2020-10-16 19:39:08 GMT 41.972610 -87.904953 0 184 1
2020-10-16 19:39:05 GMT 41.972610 -87.904953 0 185 2
2020-10-16 19:39:02 GMT 41.972580 -87.904968 0 185 1
2020-10-16 19:38:59 GMT 41.972561 -87.904938 0 187 1
2020-10-16 19:38:56 GMT 41.972580 -87.904961 0 189 1
2020-10-16 19:38:53 GMT 41.972569 -87.904953 0 189 2
2020-10-16 19:38:50 GMT 41.972580 -87.904953 0 183 0
2020-10-16 19:38:47 GMT 41.972569 -87.904938 0 187 1
2020-10-16 19:38:44 GMT 41.972569 -87.904961 0 184 3
2020-10-16 19:38:41 GMT 41.972610 -87.904938 0 179 6

Making use of Plane Finder data

You are free to use the raw flight data, aircraft information and images provided in this report for your own purposes provided the data is correctly attributed to Plane Finder. We ask that you please credit Plane Finder and link to planefinder.net in close proximity to the content.

Optionally one of the following logos (no smaller then 150x24px) can be used and must link to planefinder.net

Embedding the Plane Finder map

You are welcome to embed the Plane Finder playback map on your website to offer visitors a more interactive experience. We suggest using the following HTML code:

<iframe src="//planefinder.net/data/report/UA4410-N503GJ-7700-squawk-2020-10-16/map" width="800" height="600" seamless="seamless"></iframe>

Where our data comes from

Plane Finder has a global network of data feeds and antenna radars that receive data broadcast directly from aircraft. The primary technologies used are ADS-B and MLAT. We also show feeds from the FAA and a FLARM glider feed.

Click here to find out more about the Plane Finder network.

How we collect our data